sensor_id;sensor_type;location;lat;lon;timestamp;P1;durP1;ratioP1;P2;durP2;ratioP2
21731;SDS011;11028;51.156;17.130;2023-03-02T00:01:54;165.07;;;63.25;;
21731;SDS011;11028;51.156;17.130;2023-03-02T00:09:15;161.35;;;62.60;;
21731;SDS011;11028;51.156;17.130;2023-03-02T00:16:34;180.05;;;71.60;;
21731;SDS011;11028;51.156;17.130;2023-03-02T00:23:53;177.40;;;67.72;;
21731;SDS011;11028;51.156;17.130;2023-03-02T00:31:11;192.80;;;69.45;;
21731;SDS011;11028;51.156;17.130;2023-03-02T00:38:30;177.65;;;68.47;;
21731;SDS011;11028;51.156;17.130;2023-03-02T00:45:49;169.43;;;66.63;;
21731;SDS011;11028;51.156;17.130;2023-03-02T00:53:08;173.10;;;67.45;;
21731;SDS011;11028;51.156;17.130;2023-03-02T01:00:27;161.48;;;65.60;;
21731;SDS011;11028;51.156;17.130;2023-03-02T01:07:51;165.98;;;65.68;;
21731;SDS011;11028;51.156;17.130;2023-03-02T01:16:09;175.13;;;66.38;;
21731;SDS011;11028;51.156;17.130;2023-03-02T01:23:30;160.00;;;63.65;;
21731;SDS011;11028;51.156;17.130;2023-03-02T01:30:48;191.63;;;75.82;;
21731;SDS011;11028;51.156;17.130;2023-03-02T01:38:06;188.45;;;75.88;;
21731;SDS011;11028;51.156;17.130;2023-03-02T01:45:39;185.73;;;75.75;;
21731;SDS011;11028;51.156;17.130;2023-03-02T01:53:06;177.77;;;70.43;;
21731;SDS011;11028;51.156;17.130;2023-03-02T02:02:02;155.98;;;61.22;;
21731;SDS011;11028;51.156;17.130;2023-03-02T02:09:22;164.50;;;65.63;;
21731;SDS011;11028;51.156;17.130;2023-03-02T02:16:41;175.35;;;67.45;;
21731;SDS011;11028;51.156;17.130;2023-03-02T02:24:05;178.93;;;69.05;;
21731;SDS011;11028;51.156;17.130;2023-03-02T02:31:31;167.13;;;66.15;;
21731;SDS011;11028;51.156;17.130;2023-03-02T02:38:52;177.98;;;69.63;;
21731;SDS011;11028;51.156;17.130;2023-03-02T02:46:12;182.57;;;69.32;;
21731;SDS011;11028;51.156;17.130;2023-03-02T02:53:34;194.05;;;70.68;;
21731;SDS011;11028;51.156;17.130;2023-03-02T03:01:01;176.85;;;66.75;;
21731;SDS011;11028;51.156;17.130;2023-03-02T03:17:51;171.02;;;64.28;;
21731;SDS011;11028;51.156;17.130;2023-03-02T03:25:12;164.82;;;64.32;;
21731;SDS011;11028;51.156;17.130;2023-03-02T03:32:34;174.20;;;66.00;;
21731;SDS011;11028;51.156;17.130;2023-03-02T03:39:55;158.60;;;62.35;;
21731;SDS011;11028;51.156;17.130;2023-03-02T03:47:13;175.02;;;63.65;;
21731;SDS011;11028;51.156;17.130;2023-03-02T03:54:32;156.05;;;62.47;;
21731;SDS011;11028;51.156;17.130;2023-03-02T04:01:53;166.27;;;62.45;;
21731;SDS011;11028;51.156;17.130;2023-03-02T04:09:15;166.10;;;63.33;;
21731;SDS011;11028;51.156;17.130;2023-03-02T04:16:36;150.35;;;61.00;;
21731;SDS011;11028;51.156;17.130;2023-03-02T04:23:56;170.30;;;63.10;;
21731;SDS011;11028;51.156;17.130;2023-03-02T04:31:47;168.43;;;63.53;;
21731;SDS011;11028;51.156;17.130;2023-03-02T04:39:09;165.48;;;66.30;;
21731;SDS011;11028;51.156;17.130;2023-03-02T04:46:28;171.50;;;64.35;;
21731;SDS011;11028;51.156;17.130;2023-03-02T04:53:46;187.27;;;69.35;;
21731;SDS011;11028;51.156;17.130;2023-03-02T05:01:08;180.00;;;70.70;;
21731;SDS011;11028;51.156;17.130;2023-03-02T05:08:26;173.18;;;68.70;;
21731;SDS011;11028;51.156;17.130;2023-03-02T05:15:44;171.50;;;66.22;;
21731;SDS011;11028;51.156;17.130;2023-03-02T05:23:05;191.13;;;73.05;;
21731;SDS011;11028;51.156;17.130;2023-03-02T05:30:24;188.93;;;70.00;;
21731;SDS011;11028;51.156;17.130;2023-03-02T05:37:43;199.18;;;72.45;;
21731;SDS011;11028;51.156;17.130;2023-03-02T05:45:03;176.35;;;72.00;;
21731;SDS011;11028;51.156;17.130;2023-03-02T05:52:21;193.55;;;73.22;;
21731;SDS011;11028;51.156;17.130;2023-03-02T05:59:40;187.10;;;73.97;;
21731;SDS011;11028;51.156;17.130;2023-03-02T06:07:00;188.43;;;71.45;;
21731;SDS011;11028;51.156;17.130;2023-03-02T06:14:18;193.65;;;73.43;;
21731;SDS011;11028;51.156;17.130;2023-03-02T06:21:36;175.10;;;69.47;;
21731;SDS011;11028;51.156;17.130;2023-03-02T06:29:03;196.43;;;82.40;;
21731;SDS011;11028;51.156;17.130;2023-03-02T06:36:23;200.40;;;81.20;;
21731;SDS011;11028;51.156;17.130;2023-03-02T06:43:41;185.65;;;76.22;;
21731;SDS011;11028;51.156;17.130;2023-03-02T06:51:01;196.52;;;82.40;;
21731;SDS011;11028;51.156;17.130;2023-03-02T06:58:19;180.65;;;78.75;;
21731;SDS011;11028;51.156;17.130;2023-03-02T07:05:37;190.88;;;81.47;;
21731;SDS011;11028;51.156;17.130;2023-03-02T07:12:57;186.23;;;80.47;;
21731;SDS011;11028;51.156;17.130;2023-03-02T07:20:16;200.32;;;84.10;;
21731;SDS011;11028;51.156;17.130;2023-03-02T07:27:35;169.48;;;73.93;;
21731;SDS011;11028;51.156;17.130;2023-03-02T07:34:54;175.50;;;75.07;;
21731;SDS011;11028;51.156;17.130;2023-03-02T07:42:12;151.45;;;65.75;;
21731;SDS011;11028;51.156;17.130;2023-03-02T07:49:34;131.38;;;59.03;;
21731;SDS011;11028;51.156;17.130;2023-03-02T07:56:54;153.63;;;68.35;;
21731;SDS011;11028;51.156;17.130;2023-03-02T08:04:12;141.05;;;59.97;;
21731;SDS011;11028;51.156;17.130;2023-03-02T08:11:30;121.55;;;54.65;;
21731;SDS011;11028;51.156;17.130;2023-03-02T08:18:50;113.72;;;54.40;;
21731;SDS011;11028;51.156;17.130;2023-03-02T08:26:09;89.20;;;40.33;;
21731;SDS011;11028;51.156;17.130;2023-03-02T08:33:31;78.57;;;35.03;;
21731;SDS011;11028;51.156;17.130;2023-03-02T08:40:51;83.28;;;36.85;;
21731;SDS011;11028;51.156;17.130;2023-03-02T08:48:09;71.72;;;37.42;;
21731;SDS011;11028;51.156;17.130;2023-03-02T08:55:27;82.25;;;37.40;;
21731;SDS011;11028;51.156;17.130;2023-03-02T09:02:47;60.85;;;28.95;;
21731;SDS011;11028;51.156;17.130;2023-03-02T09:10:05;74.28;;;35.55;;
21731;SDS011;11028;51.156;17.130;2023-03-02T09:17:24;71.10;;;36.55;;
21731;SDS011;11028;51.156;17.130;2023-03-02T09:24:44;71.90;;;35.20;;
21731;SDS011;11028;51.156;17.130;2023-03-02T09:32:02;81.25;;;38.83;;
21731;SDS011;11028;51.156;17.130;2023-03-02T09:39:21;74.07;;;35.13;;
21731;SDS011;11028;51.156;17.130;2023-03-02T09:46:42;72.57;;;36.70;;
21731;SDS011;11028;51.156;17.130;2023-03-02T09:54:03;73.95;;;35.08;;
21731;SDS011;11028;51.156;17.130;2023-03-02T10:01:31;67.22;;;31.83;;
21731;SDS011;11028;51.156;17.130;2023-03-02T10:08:54;36.08;;;20.10;;
21731;SDS011;11028;51.156;17.130;2023-03-02T10:16:15;34.03;;;18.55;;
21731;SDS011;11028;51.156;17.130;2023-03-02T10:23:41;40.15;;;20.67;;
21731;SDS011;11028;51.156;17.130;2023-03-02T10:31:06;31.27;;;17.73;;
21731;SDS011;11028;51.156;17.130;2023-03-02T10:38:27;33.20;;;17.10;;
21731;SDS011;11028;51.156;17.130;2023-03-02T10:45:56;31.55;;;15.18;;
21731;SDS011;11028;51.156;17.130;2023-03-02T10:53:17;29.88;;;16.92;;
21731;SDS011;11028;51.156;17.130;2023-03-02T11:00:35;32.28;;;17.35;;
21731;SDS011;11028;51.156;17.130;2023-03-02T11:07:54;32.40;;;15.93;;
21731;SDS011;11028;51.156;17.130;2023-03-02T11:15:17;33.03;;;18.48;;
21731;SDS011;11028;51.156;17.130;2023-03-02T11:22:39;34.95;;;18.65;;
21731;SDS011;11028;51.156;17.130;2023-03-02T11:30:03;29.58;;;16.83;;
21731;SDS011;11028;51.156;17.130;2023-03-02T11:37:27;35.88;;;17.38;;
21731;SDS011;11028;51.156;17.130;2023-03-02T11:44:47;22.23;;;12.70;;
21731;SDS011;11028;51.156;17.130;2023-03-02T11:52:07;26.85;;;14.93;;
21731;SDS011;11028;51.156;17.130;2023-03-02T11:59:35;30.25;;;17.08;;
21731;SDS011;11028;51.156;17.130;2023-03-02T12:06:54;33.03;;;18.27;;
21731;SDS011;11028;51.156;17.130;2023-03-02T12:14:26;36.67;;;18.90;;
21731;SDS011;11028;51.156;17.130;2023-03-02T12:21:55;32.10;;;16.98;;
21731;SDS011;11028;51.156;17.130;2023-03-02T12:29:22;31.35;;;17.40;;
21731;SDS011;11028;51.156;17.130;2023-03-02T12:36:42;37.08;;;18.15;;
21731;SDS011;11028;51.156;17.130;2023-03-02T12:44:04;38.15;;;19.00;;
21731;SDS011;11028;51.156;17.130;2023-03-02T12:51:31;34.30;;;20.38;;
21731;SDS011;11028;51.156;17.130;2023-03-02T12:58:52;32.67;;;18.98;;
21731;SDS011;11028;51.156;17.130;2023-03-02T13:06:12;40.20;;;20.08;;
21731;SDS011;11028;51.156;17.130;2023-03-02T13:13:36;36.60;;;19.73;;
21731;SDS011;11028;51.156;17.130;2023-03-02T13:20:57;35.88;;;19.40;;
21731;SDS011;11028;51.156;17.130;2023-03-02T13:28:26;33.08;;;17.25;;
21731;SDS011;11028;51.156;17.130;2023-03-02T13:35:46;34.75;;;17.02;;
21731;SDS011;11028;51.156;17.130;2023-03-02T13:43:19;35.50;;;16.98;;
21731;SDS011;11028;51.156;17.130;2023-03-02T13:50:50;29.05;;;16.48;;
21731;SDS011;11028;51.156;17.130;2023-03-02T13:58:11;31.08;;;15.95;;
21731;SDS011;11028;51.156;17.130;2023-03-02T14:05:34;28.08;;;14.20;;
21731;SDS011;11028;51.156;17.130;2023-03-02T14:12:54;26.75;;;13.55;;
21731;SDS011;11028;51.156;17.130;2023-03-02T14:20:15;22.73;;;10.48;;
21731;SDS011;11028;51.156;17.130;2023-03-02T14:27:36;16.35;;;8.73;;
21731;SDS011;11028;51.156;17.130;2023-03-02T14:34:55;23.27;;;11.73;;
21731;SDS011;11028;51.156;17.130;2023-03-02T14:42:15;27.77;;;15.85;;
21731;SDS011;11028;51.156;17.130;2023-03-02T14:49:35;32.25;;;16.88;;
21731;SDS011;11028;51.156;17.130;2023-03-02T14:56:53;31.30;;;16.38;;
21731;SDS011;11028;51.156;17.130;2023-03-02T15:04:11;35.13;;;17.25;;
21731;SDS011;11028;51.156;17.130;2023-03-02T15:11:31;30.25;;;16.90;;
21731;SDS011;11028;51.156;17.130;2023-03-02T15:18:51;32.35;;;17.73;;
21731;SDS011;11028;51.156;17.130;2023-03-02T15:26:09;31.48;;;16.60;;
21731;SDS011;11028;51.156;17.130;2023-03-02T15:33:30;38.35;;;19.80;;
21731;SDS011;11028;51.156;17.130;2023-03-02T15:40:48;84.13;;;40.85;;
21731;SDS011;11028;51.156;17.130;2023-03-02T15:48:06;79.68;;;40.42;;
21731;SDS011;11028;51.156;17.130;2023-03-02T15:55:29;97.18;;;47.58;;
21731;SDS011;11028;51.156;17.130;2023-03-02T16:02:47;83.97;;;40.80;;
21731;SDS011;11028;51.156;17.130;2023-03-02T16:10:06;82.22;;;38.95;;
21731;SDS011;11028;51.156;17.130;2023-03-02T16:17:32;88.85;;;37.38;;
21731;SDS011;11028;51.156;17.130;2023-03-02T16:24:50;84.63;;;38.10;;
21731;SDS011;11028;51.156;17.130;2023-03-02T16:32:08;86.22;;;38.53;;
21731;SDS011;11028;51.156;17.130;2023-03-02T16:39:28;90.60;;;37.72;;
21731;SDS011;11028;51.156;17.130;2023-03-02T16:46:48;75.50;;;33.42;;
21731;SDS011;11028;51.156;17.130;2023-03-02T16:54:06;83.00;;;33.80;;
21731;SDS011;11028;51.156;17.130;2023-03-02T17:01:26;81.93;;;33.83;;
21731;SDS011;11028;51.156;17.130;2023-03-02T17:08:45;94.50;;;38.20;;
21731;SDS011;11028;51.156;17.130;2023-03-02T17:16:04;93.95;;;36.85;;
21731;SDS011;11028;51.156;17.130;2023-03-02T17:23:24;93.90;;;35.45;;
21731;SDS011;11028;51.156;17.130;2023-03-02T17:40:17;94.18;;;36.95;;
21731;SDS011;11028;51.156;17.130;2023-03-02T17:47:35;86.32;;;33.38;;
21731;SDS011;11028;51.156;17.130;2023-03-02T17:54:54;101.60;;;37.67;;
21731;SDS011;11028;51.156;17.130;2023-03-02T18:02:13;101.45;;;37.08;;
21731;SDS011;11028;51.156;17.130;2023-03-02T18:09:31;111.07;;;40.55;;
21731;SDS011;11028;51.156;17.130;2023-03-02T18:16:50;130.55;;;48.00;;
21731;SDS011;11028;51.156;17.130;2023-03-02T18:24:10;120.55;;;42.88;;
21731;SDS011;11028;51.156;17.130;2023-03-02T18:31:29;106.43;;;39.03;;
21731;SDS011;11028;51.156;17.130;2023-03-02T18:38:50;117.50;;;41.42;;
21731;SDS011;11028;51.156;17.130;2023-03-02T18:46:17;120.07;;;44.55;;
21731;SDS011;11028;51.156;17.130;2023-03-02T18:53:36;112.38;;;39.85;;
21731;SDS011;11028;51.156;17.130;2023-03-02T19:10:10;79.67;;;29.07;;
21731;SDS011;11028;51.156;17.130;2023-03-02T19:17:29;113.30;;;39.53;;
21731;SDS011;11028;51.156;17.130;2023-03-02T19:24:50;108.75;;;38.83;;
21731;SDS011;11028;51.156;17.130;2023-03-02T19:32:10;116.50;;;37.65;;
21731;SDS011;11028;51.156;17.130;2023-03-02T19:39:30;116.05;;;39.63;;
21731;SDS011;11028;51.156;17.130;2023-03-02T19:46:48;122.53;;;42.25;;
21731;SDS011;11028;51.156;17.130;2023-03-02T19:54:08;119.07;;;39.38;;
21731;SDS011;11028;51.156;17.130;2023-03-02T20:01:26;113.88;;;41.33;;
21731;SDS011;11028;51.156;17.130;2023-03-02T20:08:45;97.22;;;35.78;;
21731;SDS011;11028;51.156;17.130;2023-03-02T20:16:06;127.97;;;42.78;;
21731;SDS011;11028;51.156;17.130;2023-03-02T20:23:25;209.43;;;72.25;;
21731;SDS011;11028;51.156;17.130;2023-03-02T20:40:08;161.77;;;54.28;;
21731;SDS011;11028;51.156;17.130;2023-03-02T20:47:27;127.03;;;42.35;;
21731;SDS011;11028;51.156;17.130;2023-03-02T20:54:46;129.55;;;41.17;;
21731;SDS011;11028;51.156;17.130;2023-03-02T21:02:05;123.43;;;42.60;;
21731;SDS011;11028;51.156;17.130;2023-03-02T21:09:24;146.73;;;42.72;;
21731;SDS011;11028;51.156;17.130;2023-03-02T21:16:42;199.15;;;64.97;;
21731;SDS011;11028;51.156;17.130;2023-03-02T21:24:03;147.57;;;46.40;;
21731;SDS011;11028;51.156;17.130;2023-03-02T21:31:21;151.02;;;44.15;;
21731;SDS011;11028;51.156;17.130;2023-03-02T21:38:39;163.63;;;41.75;;
21731;SDS011;11028;51.156;17.130;2023-03-02T21:46:01;171.02;;;43.90;;
21731;SDS011;11028;51.156;17.130;2023-03-02T21:53:20;155.70;;;46.33;;
21731;SDS011;11028;51.156;17.130;2023-03-02T22:10:18;143.50;;;45.85;;
21731;SDS011;11028;51.156;17.130;2023-03-02T22:17:40;148.63;;;45.85;;
21731;SDS011;11028;51.156;17.130;2023-03-02T22:24:59;143.80;;;45.83;;
21731;SDS011;11028;51.156;17.130;2023-03-02T22:32:19;155.27;;;45.38;;
21731;SDS011;11028;51.156;17.130;2023-03-02T22:39:39;156.57;;;44.25;;
21731;SDS011;11028;51.156;17.130;2023-03-02T22:46:58;208.95;;;43.13;;
21731;SDS011;11028;51.156;17.130;2023-03-02T22:54:20;146.23;;;44.67;;
21731;SDS011;11028;51.156;17.130;2023-03-02T23:01:40;131.38;;;41.03;;
21731;SDS011;11028;51.156;17.130;2023-03-02T23:09:00;149.52;;;42.10;;
21731;SDS011;11028;51.156;17.130;2023-03-02T23:16:22;122.80;;;39.75;;
21731;SDS011;11028;51.156;17.130;2023-03-02T23:23:43;119.63;;;37.88;;
21731;SDS011;11028;51.156;17.130;2023-03-02T23:40:05;108.15;;;36.65;;
21731;SDS011;11028;51.156;17.130;2023-03-02T23:47:25;114.97;;;35.50;;
21731;SDS011;11028;51.156;17.130;2023-03-02T23:54:44;107.57;;;34.40;;
